Time;durP1;ratioP1;P1;durP2;ratioP2;P2;SDS_P1;SDS_P2;PMS_P1;PMS_P2;Temp;Humidity;BMP_temperature;BMP_pressure;BME280_temperature;BME280_humidity;BME280_pressure;Samples;Min_cycle;Max_cycle;Signal;HPM_P1;HPM_P2
2022/05/12 00:00:59;;;;;;;8.77;2.70;;;;;;;13.09;93.23;101253.78;5116265;28;20110;-80
2022/05/12 00:03:25;;;;;;;7.38;2.50;;;;;;;13.03;92.56;101255.50;5134704;28;20296;-79
2022/05/12 00:05:50;;;;;;;6.80;2.22;;;;;;;13.00;92.28;101259.41;5133900;28;20118;-80
2022/05/12 00:08:16;;;;;;;11.45;3.22;;;;;;;12.91;93.22;101266.09;5134597;28;20076;-82
2022/05/12 00:10:42;;;;;;;7.65;2.60;;;;;;;12.87;92.60;101254.16;5133730;28;20399;-81
2022/05/12 00:16:29;;;;;;;7.05;2.20;;;;;;;12.78;91.66;101266.22;5134126;28;20049;-81
2022/05/12 00:18:54;;;;;;;6.35;2.38;;;;;;;12.68;92.10;101266.69;5134502;28;20027;-80
2022/05/12 00:21:19;;;;;;;7.82;2.35;;;;;;;12.70;92.20;101269.97;5134255;28;20058;-81
2022/05/12 00:23:56;;;;;;;10.40;2.95;;;;;;;12.63;92.55;101277.25;5115367;28;20039;-81
2022/05/12 00:26:34;;;;;;;8.52;2.70;;;;;;;12.56;92.39;101271.13;5134325;28;20034;-81
2022/05/12 00:29:01;;;;;;;6.85;2.97;;;;;;;12.52;92.88;101279.81;5133485;28;20499;-80
2022/05/12 00:34:48;;;;;;;9.05;2.70;;;;;;;12.46;92.67;101281.50;5133741;28;20084;-81
2022/05/12 00:37:14;;;;;;;5.47;2.37;;;;;;;12.39;92.74;101280.69;5134352;28;20023;-80
2022/05/12 00:43:04;;;;;;;8.98;2.30;;;;;;;12.29;93.71;101297.25;5134418;28;20595;-78
2022/05/12 00:45:39;;;;;;;6.93;2.47;;;;;;;12.24;94.02;101305.13;5134239;28;20022;-82
2022/05/12 00:51:37;;;;;;;4.88;2.35;;;;;;;12.12;94.60;101297.94;5133958;27;20478;-81
2022/05/12 00:54:05;;;;;;;5.05;2.25;;;;;;;12.10;94.58;101304.34;5128912;28;20058;-81
2022/05/12 00:56:33;;;;;;;5.35;2.22;;;;;;;12.00;95.19;101301.31;5133910;28;20471;-82
2022/05/12 00:59:08;;;;;;;6.43;2.15;;;;;;;11.99;94.73;101307.69;5114874;28;20042;-81
2022/05/12 01:01:33;;;;;;;3.90;1.92;;;;;;;12.02;94.52;101311.81;5133773;28;20030;-81
2022/05/12 01:04:00;;;;;;;8.15;2.15;;;;;;;11.96;94.83;101310.81;5132929;28;20031;-82
2022/05/12 01:06:26;;;;;;;4.63;1.80;;;;;;;11.93;94.77;101311.25;5133772;28;20019;-81
2022/05/12 01:08:51;;;;;;;8.32;2.35;;;;;;;11.89;95.08;101314.56;5115146;28;20121;-79
2022/05/12 01:14:39;;;;;;;6.22;2.30;;;;;;;11.79;95.76;101329.19;5133976;28;20099;-78
2022/05/12 01:17:05;;;;;;;4.30;2.03;;;;;;;11.83;95.60;101323.41;5114598;28;20039;-79
2022/05/12 01:19:39;;;;;;;5.38;2.42;;;;;;;11.82;95.19;101330.63;5133491;28;20467;-77
2022/05/12 01:22:08;;;;;;;5.10;2.00;;;;;;;11.78;96.40;101330.22;5132575;28;20047;-77
2022/05/12 01:24:42;;;;;;;3.60;1.98;;;;;;;11.73;95.75;101334.53;5133487;28;20356;-80
2022/05/12 01:27:22;;;;;;;5.38;2.45;;;;;;;11.78;96.27;101340.13;5132594;28;20039;-81
2022/05/12 01:29:52;;;;;;;4.75;1.83;;;;;;;11.67;96.94;101333.53;5114982;28;20072;-80
2022/05/12 01:35:39;;;;;;;5.85;2.03;;;;;;;11.61;97.25;101346.94;5133810;28;20050;-81
2022/05/12 01:38:05;;;;;;;6.28;2.33;;;;;;;11.46;96.95;101345.28;5133179;28;20472;-80
2022/05/12 01:40:30;;;;;;;7.95;2.28;;;;;;;11.39;98.14;101360.53;5114112;28;20127;-81
2022/05/12 01:42:55;;;;;;;5.90;2.90;;;;;;;11.35;98.56;101359.31;5133241;28;20027;-81
2022/05/12 01:45:21;;;;;;;4.70;2.20;;;;;;;11.25;98.17;101358.88;5132323;28;20090;-81
2022/05/12 01:47:47;;;;;;;5.07;2.25;;;;;;;11.16;98.85;101371.66;5133088;27;20031;-81
2022/05/12 01:50:14;;;;;;;6.55;2.28;;;;;;;11.06;100.00;101371.25;5132359;28;20494;-81
2022/05/12 01:52:43;;;;;;;6.90;2.58;;;;;;;10.97;100.00;101358.25;5132612;28;20043;-80
2022/05/12 01:55:17;;;;;;;5.85;2.53;;;;;;;11.08;100.00;101379.88;5132963;28;20030;-80
2022/05/12 02:01:04;;;;;;;6.95;2.63;;;;;;;11.11;100.00;101378.66;5132995;28;20088;-81
2022/05/12 02:03:29;;;;;;;11.32;3.60;;;;;;;11.06;100.00;101376.59;5131276;27;20118;-82
2022/05/12 02:05:55;;;;;;;8.80;2.70;;;;;;;11.06;100.00;101384.63;5132330;28;20103;-80
2022/05/12 02:08:20;;;;;;;6.88;2.85;;;;;;;10.95;100.00;101381.69;5113530;28;20509;-80
2022/05/12 02:10:48;;;;;;;8.07;2.70;;;;;;;10.97;100.00;101387.66;5132709;28;20118;-80
2022/05/12 02:13:15;;;;;;;7.78;3.38;;;;;;;10.96;100.00;101392.19;5132666;28;20159;-80
2022/05/12 02:15:41;;;;;;;9.50;3.20;;;;;;;10.94;100.00;101396.94;5113683;28;20095;-80
2022/05/12 02:18:07;;;;;;;11.05;2.85;;;;;;;10.88;100.00;101394.25;5132600;28;20480;-80
2022/05/12 02:20:33;;;;;;;11.48;3.45;;;;;;;10.85;100.00;101398.97;5131767;28;20075;-80
2022/05/12 02:22:58;;;;;;;10.05;3.83;;;;;;;10.86;100.00;101400.63;5132716;28;20080;-80
2022/05/12 02:25:23;;;;;;;9.25;3.63;;;;;;;10.84;100.00;101402.69;5131830;28;20484;-81
2022/05/12 02:27:50;;;;;;;7.97;3.22;;;;;;;10.89;100.00;101406.59;5132183;28;20517;-80
2022/05/12 02:30:20;;;;;;;9.75;3.58;;;;;;;10.85;100.00;101406.19;5132343;28;20034;-81
2022/05/12 02:32:45;;;;;;;12.82;3.58;;;;;;;10.88;100.00;101415.66;5131455;28;20096;-81
2022/05/12 02:38:32;;;;;;;9.57;3.50;;;;;;;10.85;100.00;101423.06;5132823;28;20092;-80
2022/05/12 02:40:58;;;;;;;10.00;3.60;;;;;;;10.84;100.00;101421.41;5113806;28;20420;-77
2022/05/12 02:43:23;;;;;;;14.87;3.60;;;;;;;10.77;100.00;101415.22;5131348;28;20058;-78
2022/05/12 02:46:09;;;;;;;12.47;4.17;;;;;;;10.76;100.00;101424.28;5113793;28;20276;-78
2022/05/12 02:51:56;;;;;;;16.35;3.50;;;;;;;10.66;100.00;101439.84;5132794;27;20096;-78
2022/05/12 02:54:22;;;;;;;12.52;3.63;;;;;;;10.63;100.00;101434.91;5131442;28;20039;-78
2022/05/12 02:56:47;;;;;;;11.82;3.53;;;;;;;10.58;100.00;101441.88;5132209;28;20031;-81
2022/05/12 02:59:13;;;;;;;12.85;3.63;;;;;;;10.54;100.00;101438.78;5113918;28;20035;-81
2022/05/12 03:01:39;;;;;;;11.70;4.20;;;;;;;10.52;100.00;101440.84;5112916;28;20039;-81
2022/05/12 03:04:04;;;;;;;7.78;3.92;;;;;;;10.53;100.00;101435.28;5132040;28;20054;-81
2022/05/12 03:06:30;;;;;;;11.57;3.72;;;;;;;10.48;100.00;101431.56;5131314;28;20047;-80
2022/05/12 03:08:56;;;;;;;15.63;4.85;;;;;;;10.50;100.00;101442.88;5131951;28;20055;-80
2022/05/12 03:11:22;;;;;;;18.60;4.28;;;;;;;10.50;100.00;101446.38;5112463;28;20039;-79
2022/05/12 03:17:09;;;;;;;18.55;5.00;;;;;;;10.44;100.00;101451.69;5135753;28;20603;-80
2022/05/12 03:19:34;;;;;;;15.35;4.97;;;;;;;10.46;100.00;101452.31;5135559;28;20027;-79
2022/05/12 03:22:00;;;;;;;20.98;5.28;;;;;;;10.47;100.00;101446.78;5135443;28;20034;-80
2022/05/12 03:27:47;;;;;;;17.77;5.25;;;;;;;10.38;100.00;101450.63;5135609;28;20066;-78
2022/05/12 03:30:17;;;;;;;14.23;5.40;;;;;;;10.35;100.00;101453.69;5134537;28;20039;-81
2022/05/12 03:32:43;;;;;;;17.30;7.15;;;;;;;10.29;100.00;101449.16;5135371;28;20027;-81
2022/05/12 03:35:09;;;;;;;13.88;5.43;;;;;;;10.36;100.00;101462.53;5134523;28;20039;-82
2022/05/12 03:37:35;;;;;;;20.52;6.57;;;;;;;10.27;100.00;101458.38;5135158;28;20023;-81
2022/05/12 03:40:00;;;;;;;15.85;7.03;;;;;;;10.27;100.00;101467.22;5135104;28;20109;-79
2022/05/12 03:42:26;;;;;;;19.38;6.30;;;;;;;10.27;100.00;101477.09;5116055;28;20031;-80
2022/05/12 03:44:53;;;;;;;20.42;7.38;;;;;;;10.24;100.00;101478.31;5116604;28;20035;-80
2022/05/12 03:47:24;;;;;;;20.00;7.40;;;;;;;10.22;100.00;101483.84;5134374;27;20047;-80
2022/05/12 03:53:12;;;;;;;22.05;7.68;;;;;;;10.08;100.00;101467.88;5135508;28;20092;-80
2022/05/12 03:55:37;;;;;;;28.98;8.15;;;;;;;10.18;100.00;101481.75;5135094;28;20122;-80
2022/05/12 03:58:03;;;;;;;25.10;8.50;;;;;;;10.17;100.00;101488.94;5134046;28;20067;-80
2022/05/12 04:00:29;;;;;;;24.35;8.07;;;;;;;10.19;100.00;101494.91;5116559;28;20459;-79
2022/05/12 04:02:55;;;;;;;21.25;8.23;;;;;;;10.11;100.00;101494.22;5134774;28;20106;-78
2022/05/12 04:05:20;;;;;;;26.02;8.82;;;;;;;10.13;100.00;101505.56;5134006;28;20047;-80
2022/05/12 04:07:46;;;;;;;21.88;8.57;;;;;;;10.12;100.00;101504.72;5134688;28;20034;-79
2022/05/12 04:10:13;;;;;;;22.90;10.85;;;;;;;10.11;100.00;101500.38;5115703;28;20497;-80
2022/05/12 04:16:00;;;;;;;37.30;10.60;;;;;;;10.30;100.00;101511.44;5134780;28;20050;-80
2022/05/12 04:18:26;;;;;;;30.63;10.90;;;;;;;10.33;100.00;101509.19;5134468;28;20024;-80
2022/05/12 04:20:52;;;;;;;36.75;11.57;;;;;;;10.41;100.00;101525.13;5134097;28;20292;-79
2022/05/12 04:23:17;;;;;;;32.67;12.02;;;;;;;10.41;100.00;101519.75;5115280;28;20383;-80
2022/05/12 04:25:43;;;;;;;27.90;10.30;;;;;;;10.46;100.00;101514.66;5134167;28;20023;-80
2022/05/12 04:28:08;;;;;;;32.00;11.70;;;;;;;10.48;100.00;101523.31;5132476;27;20296;-79
2022/05/12 04:30:33;;;;;;;37.28;11.80;;;;;;;10.60;100.00;101536.94;5115790;28;20313;-79
2022/05/12 04:35:10;;;;;;;31.13;12.23;;;;;;;10.71;100.00;101538.25;5115200;28;20027;-79
2022/05/12 04:39:06;;;;;;;30.50;12.32;;;;;;;10.99;100.00;101546.19;5134311;27;20038;-81
2022/05/12 04:44:53;;;;;;;43.47;14.48;;;;;;;10.91;100.00;101546.34;5134186;28;20042;-80
2022/05/12 04:47:18;;;;;;;37.80;15.00;;;;;;;10.96;100.00;101557.28;5125413;27;20039;-80
2022/05/12 04:49:44;;;;;;;47.00;14.85;;;;;;;11.07;100.00;101552.19;5115537;28;20062;-83
2022/05/12 04:52:09;;;;;;;37.85;14.73;;;;;;;11.26;100.00;101555.13;5133168;28;20043;-82
2022/05/12 04:54:34;;;;;;;43.88;16.33;;;;;;;11.50;100.00;101551.91;5115518;28;20031;-80
2022/05/12 04:56:59;;;;;;;42.33;17.80;;;;;;;11.68;100.00;101564.75;5133309;28;20099;-76
2022/05/12 04:59:25;;;;;;;61.13;16.43;;;;;;;11.88;100.00;101562.13;5133646;28;20758;-77
2022/05/12 05:05:12;;;;;;;47.78;18.38;;;;;;;12.67;100.00;101565.56;5134271;28;20497;-80
2022/05/12 05:10:59;;;;;;;45.80;16.73;;;;;;;13.31;100.00;101577.38;5133920;27;20030;-79
2022/05/12 05:16:47;;;;;;;48.15;18.70;;;;;;;14.09;98.36;101595.91;5133892;28;20120;-79
2022/05/12 05:22:34;;;;;;;55.92;20.77;;;;;;;14.34;95.27;101588.66;5133838;28;20078;-79
2022/05/12 05:25:00;;;;;;;60.83;21.42;;;;;;;14.53;94.85;101603.84;5115012;28;20399;-82
2022/05/12 05:30:48;;;;;;;72.95;22.10;;;;;;;15.17;91.58;101596.31;5133585;28;20030;-82
2022/05/12 05:33:13;;;;;;;56.35;21.65;;;;;;;15.45;90.10;101612.75;5132390;28;20051;-82
2022/05/12 05:35:39;;;;;;;49.05;21.92;;;;;;;15.76;88.46;101616.31;5114904;28;20391;-80
2022/05/12 05:38:04;;;;;;;53.40;21.60;;;;;;;15.94;87.94;101615.44;5132322;27;20045;-81
2022/05/12 05:40:29;;;;;;;62.80;22.48;;;;;;;16.31;85.30;101616.91;5133185;28;20140;-78
2022/05/12 05:42:56;;;;;;;58.90;21.38;;;;;;;16.61;83.60;101627.63;5114200;28;20106;-81
2022/05/12 05:45:23;;;;;;;55.20;20.73;;;;;;;16.82;81.97;101620.03;5114565;28;20190;-80
2022/05/12 05:47:58;;;;;;;71.82;21.98;;;;;;;17.35;80.06;101630.63;5133681;27;20020;-79
2022/05/12 05:50:30;;;;;;;51.78;20.85;;;;;;;17.89;79.92;101641.94;5132399;28;20036;-78
2022/05/12 05:56:17;;;;;;;46.97;20.50;;;;;;;19.09;72.16;101651.47;5133306;28;20111;-79
2022/05/12 06:02:05;;;;;;;46.80;21.55;;;;;;;19.21;69.35;101659.50;5133729;28;20083;-79
2022/05/12 06:11:20;;;;;;;47.97;21.23;;;;;;;19.52;69.73;101674.25;5133039;28;20067;-78
2022/05/12 06:17:07;;;;;;;53.70;21.75;;;;;;;20.42;64.79;101679.84;5133032;28;20042;-82
2022/05/12 06:22:55;;;;;;;43.58;21.13;;;;;;;21.60;59.57;101690.38;5132967;27;20054;-74
2022/05/12 06:28:46;;;;;;;46.33;20.25;;;;;;;22.33;56.39;101695.75;5132472;28;20536;-79
2022/05/12 06:34:34;;;;;;;44.33;19.80;;;;;;;22.38;55.15;101697.66;5132897;27;20121;-80
2022/05/12 06:40:22;;;;;;;39.55;18.40;;;;;;;23.54;51.35;101704.00;5132395;28;20080;-81
2022/05/12 06:49:36;;;;;;;37.42;19.25;;;;;;;22.29;53.99;101729.25;5132541;27;20123;-80
2022/05/12 06:55:27;;;;;;;44.45;19.50;;;;;;;21.67;55.42;101714.63;5136235;28;20131;-88
2022/05/12 07:01:14;;;;;;;35.28;17.88;;;;;;;23.16;51.56;101733.63;5136464;27;20080;-82
2022/05/12 07:07:01;;;;;;;39.25;17.77;;;;;;;23.59;48.89;101737.59;5135970;28;20291;-79
2022/05/12 07:09:26;;;;;;;40.95;19.05;;;;;;;22.13;51.79;101742.03;5116950;28;20015;-79
2022/05/12 07:11:52;;;;;;;36.30;17.38;;;;;;;21.41;53.16;101732.78;5135099;28;20143;-80
2022/05/12 07:17:43;;;;;;;36.33;17.40;;;;;;;21.72;52.11;101741.88;5136027;28;20087;-79
2022/05/12 07:29:36;;;;;;;28.38;13.10;;;;;;;26.88;38.70;101748.09;5135661;28;20042;-81
2022/05/12 07:35:23;;;;;;;23.70;12.20;;;;;;;22.98;44.75;101748.66;5135297;28;20452;-81
2022/05/12 07:37:48;;;;;;;25.27;14.20;;;;;;;23.28;45.49;101755.13;5135201;28;20027;-81
2022/05/12 07:40:14;;;;;;;26.77;14.90;;;;;;;25.18;42.75;101755.38;5134440;28;20156;-81
2022/05/12 07:46:01;;;;;;;28.45;14.70;;;;;;;23.65;41.63;101755.59;5135035;27;20321;-80
2022/05/12 07:51:48;;;;;;;24.15;12.27;;;;;;;26.10;39.09;101770.72;5135342;28;20035;-79
2022/05/12 07:54:14;;;;;;;21.27;12.07;;;;;;;27.25;36.01;101765.59;5134975;28;20370;-79
2022/05/12 07:56:39;;;;;;;22.63;12.93;;;;;;;27.94;34.61;101772.72;5115896;28;20403;-78
2022/05/12 07:59:05;;;;;;;19.80;10.83;;;;;;;28.62;32.30;101757.94;5134752;28;20429;-80
2022/05/12 08:04:52;;;;;;;15.27;9.50;;;;;;;25.36;36.05;101783.13;5135167;28;20451;-78
2022/05/12 08:07:17;;;;;;;20.40;10.25;;;;;;;25.54;37.32;101780.44;5134495;28;20023;-80
2022/05/12 08:09:43;;;;;;;20.13;9.98;;;;;;;26.06;35.97;101773.25;5116062;28;20400;-80
2022/05/12 08:12:09;;;;;;;24.10;11.00;;;;;;;25.24;36.80;101781.59;5134601;28;20083;-80
2022/05/12 08:14:35;;;;;;;16.60;8.60;;;;;;;24.33;37.56;101783.16;5133714;28;20054;-78
2022/05/12 08:17:01;;;;;;;22.27;9.50;;;;;;;23.23;39.68;101788.72;5134504;28;20079;-79
2022/05/12 08:22:48;;;;;;;16.95;9.82;;;;;;;24.67;39.64;101791.38;5135078;28;20050;-79
2022/05/12 08:25:14;;;;;;;16.77;8.98;;;;;;;25.54;36.79;101787.84;5133736;28;20039;-80
2022/05/12 08:27:40;;;;;;;18.63;7.93;;;;;;;27.25;32.90;101795.81;5134366;28;20034;-78
2022/05/12 08:30:09;;;;;;;15.35;7.88;;;;;;;27.96;32.47;101792.47;5134445;28;20383;-79
2022/05/12 08:32:35;;;;;;;13.32;6.93;;;;;;;27.26;31.23;101776.28;5133255;28;20064;-80
2022/05/12 08:35:00;;;;;;;13.93;6.57;;;;;;;28.30;30.34;101791.19;5115948;28;20031;-80
2022/05/12 08:37:26;;;;;;;11.98;5.65;;;;;;;27.99;29.91;101777.28;5133464;28;20043;-79
2022/05/12 08:39:51;;;;;;;13.88;7.30;;;;;;;28.39;28.85;101789.34;5115688;28;20091;-81
2022/05/12 08:42:35;;;;;;;12.30;6.38;;;;;;;29.87;28.07;101789.84;5133597;28;20429;-78
2022/05/12 08:48:23;;;;;;;12.75;5.78;;;;;;;27.14;28.55;101800.66;5134750;27;20133;-85
2022/05/12 08:50:53;;;;;;;14.30;5.75;;;;;;;24.61;32.09;101786.25;5134723;28;20048;-83
2022/05/12 08:56:40;;;;;;;11.90;6.10;;;;;;;26.64;31.28;101781.19;5134505;28;20065;-76
2022/05/12 09:03:07;;;;;;;15.27;5.60;;;;;;;26.40;30.62;101794.19;5133741;28;20043;-75
2022/05/12 09:09:03;;;;;;;10.52;4.93;;;;;;;25.66;31.63;101801.94;5133853;28;20069;-75
2022/05/12 09:11:44;;;;;;;9.38;4.68;;;;;;;26.65;30.73;101798.47;5132742;28;20499;-78
2022/05/12 09:14:17;;;;;;;12.18;3.75;;;;;;;27.78;27.60;101804.41;5114920;28;20027;-79
2022/05/12 09:20:09;;;;;;;34.63;6.63;;;;;;;28.48;26.46;101800.41;5134016;28;20042;-83
2022/05/12 09:22:34;;;;;;;8.63;4.68;;;;;;;27.84;27.39;101803.19;5132936;28;20042;-75
2022/05/12 09:25:00;;;;;;;10.88;4.22;;;;;;;28.39;27.06;101800.34;5114938;28;20031;-78
2022/05/12 09:30:48;;;;;;;12.55;5.00;;;;;;;27.29;28.72;101802.31;5133469;28;20080;-79
2022/05/12 09:33:29;;;;;;;13.43;4.90;;;;;;;27.91;27.93;101794.50;5133257;28;20046;-80
2022/05/12 09:35:57;;;;;;;13.48;5.22;;;;;;;28.07;26.90;101807.63;5132325;28;20451;-75
2022/05/12 09:38:25;;;;;;;10.18;4.60;;;;;;;27.67;28.56;101798.28;5133200;28;20019;-77
2022/05/12 09:40:51;;;;;;;8.02;4.70;;;;;;;27.28;27.87;101795.19;5132102;28;20483;-76
2022/05/12 09:43:25;;;;;;;10.88;4.63;;;;;;;25.48;31.77;101797.25;5133130;28;20027;-77
2022/05/12 09:46:18;;;;;;;7.57;4.47;;;;;;;24.95;30.64;101792.53;5132454;28;20019;-76
2022/05/12 09:48:45;;;;;;;;;;;;;;;25.26;30.47;101792.25;5115001;28;20076;-76
2022/05/12 09:51:23;;;;;;;8.15;4.30;;;;;;;23.89;31.35;101779.53;5133073;28;20371;-75
2022/05/12 09:57:14;;;;;;;11.82;4.25;;;;;;;22.48;36.04;101793.06;5133293;28;20042;-76
2022/05/12 09:59:42;;;;;;;11.10;4.45;;;;;;;22.75;34.61;101781.91;5132021;28;20395;-77
2022/05/12 10:11:45;;;;;;;9.93;3.83;;;;;;;23.46;34.07;101784.59;5133171;28;20083;-76
2022/05/12 10:14:22;;;;;;;10.18;4.07;;;;;;;22.98;33.73;101783.28;5114913;28;20027;-79
2022/05/12 10:16:49;;;;;;;7.72;3.38;;;;;;;22.35;35.18;101780.78;5132335;28;20410;-76
2022/05/12 10:22:41;;;;;;;8.93;3.80;;;;;;;22.49;33.98;101779.16;5132522;28;20126;-76
2022/05/12 10:28:47;;;;;;;6.43;3.22;;;;;;;21.66;35.21;101791.94;5132802;27;20478;-77
2022/05/12 10:31:24;;;;;;;10.38;3.40;;;;;;;21.28;35.41;101793.91;5132418;28;20076;-77
2022/05/12 10:33:57;;;;;;;7.47;2.60;;;;;;;20.70;34.67;101792.88;5113442;28;20043;-76
2022/05/12 10:40:09;;;;;;;5.10;2.70;;;;;;;21.19;35.45;101790.00;5132680;28;20367;-75
2022/05/12 10:43:08;;;;;;;7.10;3.03;;;;;;;21.30;36.35;101797.19;5132228;28;20037;-74
2022/05/12 10:45:46;;;;;;;7.13;3.67;;;;;;;21.73;34.55;101786.25;5131493;28;20055;-76
2022/05/12 10:48:42;;;;;;;6.32;3.13;;;;;;;21.86;36.25;101783.03;5132245;27;20482;-78
2022/05/12 10:51:26;;;;;;;7.65;3.88;;;;;;;21.96;34.85;101780.34;5131411;28;20043;-80
2022/05/12 10:57:44;;;;;;;5.95;2.63;;;;;;;22.27;36.02;101789.50;5132668;28;20394;-77
2022/05/12 11:03:58;;;;;;;8.38;3.90;;;;;;;22.49;33.04;101779.16;5132044;28;20107;-78
2022/05/12 11:06:29;;;;;;;9.77;3.58;;;;;;;21.93;33.64;101781.69;5131331;28;20043;-79
2022/05/12 11:09:02;;;;;;;6.28;3.90;;;;;;;21.62;34.13;101772.59;5131146;28;20039;-77
2022/05/12 11:11:45;;;;;;;7.85;3.90;;;;;;;21.97;33.53;101773.81;5113594;28;20090;-74
2022/05/12 11:14:22;;;;;;;7.07;4.10;;;;;;;22.40;33.23;101778.06;5131254;28;20096;-75
2022/05/12 11:17:05;;;;;;;9.82;3.63;;;;;;;22.39;34.02;101768.25;5132137;28;20027;-74
2022/05/12 11:19:30;;;;;;;8.13;4.15;;;;;;;21.58;33.75;101765.22;5112510;28;20047;-75
2022/05/12 11:25:43;;;;;;;14.40;4.05;;;;;;;21.90;34.28;101765.91;5131322;28;20046;-80
2022/05/12 11:31:37;;;;;;;8.60;4.50;;;;;;;22.38;33.37;101755.69;5133315;27;20462;-79
2022/05/12 11:34:08;;;;;;;6.72;5.03;;;;;;;22.54;32.48;101753.78;5113435;28;20023;-77
2022/05/12 11:36:42;;;;;;;9.38;4.80;;;;;;;23.14;31.82;101755.72;5132672;27;20023;-76
2022/05/12 11:39:25;;;;;;;10.18;4.47;;;;;;;24.53;30.30;101748.53;5135118;28;20514;-78
2022/05/12 11:42:28;;;;;;;6.60;4.15;;;;;;;25.12;29.32;101756.53;5135456;28;20031;-78
2022/05/12 11:48:43;;;;;;;8.07;5.05;;;;;;;23.90;30.18;101760.13;5051694;28;20035;-79
2022/05/12 11:51:34;;;;;;;7.55;4.60;;;;;;;23.71;30.83;101750.94;5035025;28;20063;-78
2022/05/12 11:57:25;;;;;;;10.82;5.15;;;;;;;23.33;31.66;101752.38;5135309;28;20088;-76
2022/05/12 11:59:56;;;;;;;9.00;5.72;;;;;;;23.36;31.37;101757.28;5116267;28;20454;-77
2022/05/12 12:09:33;;;;;;;11.45;5.50;;;;;;;23.18;29.79;101754.06;5135168;28;20099;-77
2022/05/12 12:12:00;;;;;;;6.43;5.30;;;;;;;22.76;30.13;101748.91;5115600;28;20458;-76
2022/05/12 12:21:49;;;;;;;8.25;5.38;;;;;;;23.08;31.61;101734.16;5134877;28;20054;-76
2022/05/12 12:24:14;;;;;;;8.57;5.18;;;;;;;23.29;30.94;101743.94;5054353;28;20045;-76
2022/05/12 12:30:25;;;;;;;7.40;4.78;;;;;;;22.74;31.26;101759.25;5134782;28;20042;-76
2022/05/12 12:36:18;;;;;;;8.45;4.97;;;;;;;22.33;32.21;101749.44;5134654;28;20069;-76
2022/05/12 12:38:49;;;;;;;13.30;5.35;;;;;;;22.58;32.00;101751.38;5134406;28;20372;-76
2022/05/12 12:41:19;;;;;;;16.77;5.30;;;;;;;23.22;31.20;101731.69;5115138;28;20047;-76
2022/05/12 12:47:15;;;;;;;9.15;5.35;;;;;;;23.83;30.51;101740.50;5134423;27;20042;-76
2022/05/12 12:49:54;;;;;;;7.97;5.22;;;;;;;23.71;30.43;101746.31;5133298;28;20046;-77
2022/05/12 12:52:20;;;;;;;10.10;5.80;;;;;;;23.47;29.57;101737.91;5133391;28;20047;-76
2022/05/12 12:58:14;;;;;;;14.95;5.45;;;;;;;23.31;31.82;101732.75;5134370;28;20058;-75
2022/05/12 13:00:40;;;;;;;13.77;6.15;;;;;;;23.37;30.15;101726.97;5128067;28;20527;-76
2022/05/12 13:03:08;;;;;;;14.73;6.45;;;;;;;23.44;31.07;101729.44;5133789;28;20023;-76
2022/05/12 13:05:36;;;;;;;8.30;7.20;;;;;;;23.43;29.78;101722.34;5114833;28;20418;-75
2022/05/12 13:11:22;;;;;;;9.35;7.40;;;;;;;22.70;32.43;101711.81;5134258;28;20714;-77
2022/05/12 13:13:50;;;;;;;9.37;6.50;;;;;;;22.81;31.73;101718.91;5133913;28;20106;-76
2022/05/12 13:16:19;;;;;;;8.27;5.95;;;;;;;23.01;30.80;101717.25;5132797;28;20768;-75
2022/05/12 13:18:51;;;;;;;6.55;5.85;;;;;;;22.90;30.46;101715.66;5115130;28;20024;-76
2022/05/12 13:21:32;;;;;;;8.43;5.45;;;;;;;22.89;32.10;101714.03;5132359;28;20125;-76
2022/05/12 13:24:13;;;;;;;11.25;5.50;;;;;;;22.95;31.63;101704.72;5133459;28;20089;-76
2022/05/12 13:30:02;;;;;;;14.57;6.45;;;;;;;22.81;31.54;101705.28;5134121;28;20596;-79
2022/05/12 13:36:07;;;;;;;8.10;4.60;;;;;;;23.17;31.70;101706.06;5134394;28;20046;-75
2022/05/12 13:38:43;;;;;;;9.93;5.68;;;;;;;23.17;30.84;101702.50;5134170;28;20031;-76
2022/05/12 13:44:36;;;;;;;8.90;6.38;;;;;;;22.64;31.86;101693.84;5134346;28;20041;-79
2022/05/12 13:47:05;;;;;;;8.68;6.45;;;;;;;22.42;32.47;101694.09;5114948;28;20041;-75
2022/05/12 13:52:52;;;;;;;6.22;5.43;;;;;;;22.51;31.60;101688.91;5133758;27;20053;-75
2022/05/12 13:55:25;;;;;;;7.18;4.72;;;;;;;22.79;31.96;101688.34;5133464;28;20030;-76
2022/05/12 13:58:09;;;;;;;9.75;4.80;;;;;;;22.81;33.57;101680.72;5132790;28;20043;-76
2022/05/12 14:00:40;;;;;;;7.28;5.65;;;;;;;22.84;32.87;101682.09;5133539;27;20027;-75
2022/05/12 14:06:29;;;;;;;10.38;6.18;;;;;;;22.39;32.55;101689.19;5133882;27;20414;-77
2022/05/12 14:09:06;;;;;;;6.43;5.60;;;;;;;22.33;34.55;101678.56;5133026;28;20152;-78
2022/05/12 14:11:31;;;;;;;6.60;5.50;;;;;;;22.33;32.72;101676.66;5114013;28;20039;-77
2022/05/12 14:20:14;;;;;;;10.27;6.93;;;;;;;22.44;32.40;101672.03;5133579;28;20046;-76
2022/05/12 14:22:39;;;;;;;12.73;6.85;;;;;;;22.68;32.99;101675.00;5132384;28;20043;-75
2022/05/12 14:28:27;;;;;;;12.95;6.30;;;;;;;22.62;33.09;101674.19;5133620;28;20529;-78
2022/05/12 14:34:19;;;;;;;7.78;6.00;;;;;;;22.46;33.80;101667.94;5133635;28;20110;-79
2022/05/12 14:40:07;;;;;;;11.27;6.88;;;;;;;22.23;33.63;101665.75;5132979;28;20042;-78
2022/05/12 14:42:33;;;;;;;12.30;6.47;;;;;;;22.06;33.72;101660.56;5114414;28;20501;-82
2022/05/12 14:44:58;;;;;;;9.93;6.57;;;;;;;22.02;33.83;101656.72;5113439;28;20043;-75
2022/05/12 14:47:29;;;;;;;8.70;6.68;;;;;;;22.09;34.97;101651.03;5132167;27;20470;-78
2022/05/12 14:49:55;;;;;;;12.38;6.70;;;;;;;22.10;35.31;101639.88;5132431;28;20471;-78
2022/05/12 14:52:24;;;;;;;12.23;7.18;;;;;;;22.12;34.58;101655.94;5113188;28;20071;-75
2022/05/12 14:54:51;;;;;;;11.80;6.97;;;;;;;22.37;33.46;101647.78;5113937;28;20034;-75
2022/05/12 14:57:17;;;;;;;11.80;6.63;;;;;;;22.34;33.50;101637.41;5131360;28;20407;-75
2022/05/12 14:59:43;;;;;;;14.55;7.22;;;;;;;22.25;34.83;101639.03;5113995;28;20025;-76
2022/05/12 15:02:14;;;;;;;10.07;5.97;;;;;;;22.11;34.92;101643.41;5132030;28;20042;-74
2022/05/12 15:04:40;;;;;;;9.82;6.13;;;;;;;22.17;33.79;101634.13;5131201;28;20491;-74
2022/05/12 15:07:05;;;;;;;11.45;5.30;;;;;;;22.35;34.81;101641.78;5113704;28;20019;-74
2022/05/12 15:09:31;;;;;;;10.10;5.90;;;;;;;22.46;34.57;101640.66;5131254;28;20043;-74
2022/05/12 15:11:56;;;;;;;14.45;7.18;;;;;;;22.34;33.67;101637.41;5133717;27;20042;-75
2022/05/12 15:14:22;;;;;;;11.27;6.97;;;;;;;22.43;34.12;101635.78;5117229;28;20039;-75
2022/05/12 15:16:47;;;;;;;10.30;6.97;;;;;;;22.39;34.97;101636.59;5134878;28;20038;-75
2022/05/12 15:19:13;;;;;;;9.35;6.63;;;;;;;22.19;35.05;101624.59;5117199;28;20031;-76
2022/05/12 15:21:38;;;;;;;9.88;6.38;;;;;;;22.16;35.69;101630.59;5116509;28;20035;-77
2022/05/12 15:24:04;;;;;;;9.25;6.25;;;;;;;22.05;34.76;101639.06;5135699;28;20050;-75
2022/05/12 15:26:33;;;;;;;12.00;6.60;;;;;;;21.65;35.67;101635.94;5135408;28;20035;-75
2022/05/12 15:32:20;;;;;;;12.95;6.00;;;;;;;21.46;35.77;101636.72;5135569;27;20456;-76
2022/05/12 15:38:09;;;;;;;12.85;6.03;;;;;;;21.57;35.49;101631.03;5135384;28;20276;-74
2022/05/12 15:40:34;;;;;;;11.65;5.93;;;;;;;21.73;34.75;101631.91;5135310;28;20447;-78
2022/05/12 15:49:47;;;;;;;9.40;6.18;;;;;;;21.69;35.38;101633.53;5135527;28;20512;-74
2022/05/12 15:52:13;;;;;;;9.98;6.05;;;;;;;21.62;34.89;101630.22;5116141;28;20043;-73
2022/05/12 15:54:40;;;;;;;11.95;5.65;;;;;;;21.58;35.31;101635.38;5116467;28;20036;-74
2022/05/12 15:57:06;;;;;;;8.02;5.35;;;;;;;21.58;36.50;101624.50;5134042;28;20035;-77
2022/05/12 16:02:53;;;;;;;14.48;5.25;;;;;;;21.49;36.27;101619.84;5134788;28;20043;-76
2022/05/12 16:08:39;;;;;;;17.30;5.15;;;;;;;21.34;36.27;101615.97;5134085;28;20438;-78
2022/05/12 16:14:33;;;;;;;10.35;4.45;;;;;;;21.04;36.45;101603.03;5134869;28;20318;-81
2022/05/12 16:23:42;;;;;;;10.95;4.28;;;;;;;21.90;35.50;101607.13;5133484;27;20064;-75
2022/05/12 16:29:36;;;;;;;8.70;3.85;;;;;;;21.54;36.50;101600.81;5134469;28;20038;-76
2022/05/12 16:35:24;;;;;;;6.88;4.32;;;;;;;21.55;36.43;101602.44;5134561;27;20122;-74